createdAt,value
2019-05-06T00:00:58.743Z,6.27
2019-05-06T00:03:26.459Z,6.00
2019-05-06T00:05:55.565Z,3.63
2019-05-06T00:08:24.701Z,6.07
2019-05-06T00:10:54.376Z,6.93
2019-05-06T00:13:24.134Z,9.30
2019-05-06T00:15:54.427Z,5.40
2019-05-06T00:18:24.548Z,11.70
2019-05-06T00:20:57.218Z,5.77
2019-05-06T00:23:35.366Z,8.20
2019-05-06T00:26:25.709Z,8.60
2019-05-06T00:28:58.023Z,4.70
2019-05-06T00:31:27.127Z,7.33
2019-05-06T00:33:56.230Z,10.17
2019-05-06T00:36:25.560Z,6.47
2019-05-06T00:38:57.767Z,9.37
2019-05-06T00:41:29.013Z,6.93
2019-05-06T00:43:58.240Z,6.60
2019-05-06T00:46:27.368Z,6.67
2019-05-06T00:48:56.497Z,9.17
2019-05-06T00:51:25.926Z,7.17
2019-05-06T00:54:00.379Z,6.47
2019-05-06T00:56:29.555Z,10.80
2019-05-06T00:58:58.817Z,6.17
2019-05-06T01:01:29.779Z,9.03
2019-05-06T01:03:58.850Z,6.17
2019-05-06T01:06:27.957Z,6.27
2019-05-06T01:08:57.106Z,6.17
2019-05-06T01:11:26.384Z,6.50
2019-05-06T01:14:01.920Z,9.37
2019-05-06T01:16:34.563Z,6.43
2019-05-06T01:19:04.738Z,5.83
2019-05-06T01:21:34.839Z,6.27
2019-05-06T01:24:04.203Z,4.90
2019-05-06T01:26:33.927Z,7.10
2019-05-06T01:29:03.917Z,6.00
2019-05-06T01:31:42.932Z,7.37
2019-05-06T01:34:04.503Z,4.50
2019-05-06T01:36:34.319Z,8.17
2019-05-06T01:39:30.550Z,7.03
2019-05-06T01:42:18.775Z,4.10
2019-05-06T01:44:47.924Z,6.37
2019-05-06T01:47:17.038Z,7.17
2019-05-06T01:49:46.248Z,6.73
2019-05-06T01:52:15.396Z,5.73
2019-05-06T01:54:44.616Z,5.53
2019-05-06T01:57:13.829Z,4.00
2019-05-06T01:59:44.328Z,9.53
2019-05-06T02:02:14.366Z,4.77
2019-05-06T02:04:44.363Z,3.40
2019-05-06T02:07:14.456Z,5.77
2019-05-06T02:09:44.777Z,4.90
2019-05-06T02:12:14.140Z,6.37
2019-05-06T02:14:43.650Z,8.23
2019-05-06T02:17:14.418Z,5.27
2019-05-06T02:19:43.962Z,5.60
2019-05-06T02:22:25.372Z,4.97
2019-05-06T02:24:58.300Z,7.10
2019-05-06T02:27:27.460Z,7.53
2019-05-06T02:30:08.445Z,4.80
2019-05-06T02:33:04.173Z,8.60
2019-05-06T02:35:51.442Z,6.53
2019-05-06T02:38:30.295Z,8.20
2019-05-06T02:40:56.499Z,5.40
2019-05-06T02:43:25.625Z,7.53
2019-05-06T02:45:54.820Z,4.63
2019-05-06T02:48:54.313Z,6.33
2019-05-06T02:51:26.013Z,8.87
2019-05-06T02:53:55.152Z,6.50
2019-05-06T02:56:24.404Z,7.37
2019-05-06T02:58:53.900Z,5.50
2019-05-06T03:01:23.488Z,8.57
2019-05-06T03:03:53.670Z,4.23
2019-05-06T03:06:23.889Z,7.80
2019-05-06T03:08:54.426Z,6.10
2019-05-06T03:11:24.178Z,4.30
2019-05-06T03:13:53.933Z,6.43
2019-05-06T03:16:23.885Z,7.77
2019-05-06T03:18:54.794Z,6.63
2019-05-06T03:21:58.055Z,7.30
2019-05-06T03:24:33.342Z,5.20
2019-05-06T03:27:04.596Z,7.40
2019-05-06T03:29:33.747Z,4.27
2019-05-06T03:32:07.072Z,7.27
2019-05-06T03:34:57.982Z,5.00
2019-05-06T03:37:07.180Z,5.97
2019-05-06T03:39:35.817Z,5.33
2019-05-06T03:42:05.102Z,6.77
2019-05-06T03:44:36.367Z,4.70
2019-05-06T03:47:16.473Z,9.33
2019-05-06T03:49:50.197Z,6.33
2019-05-06T03:52:18.616Z,4.90
2019-05-06T03:54:48.493Z,4.57
2019-05-06T03:57:18.910Z,6.13
2019-05-06T03:59:52.647Z,7.97
2019-05-06T04:02:23.770Z,5.93
2019-05-06T04:04:56.046Z,7.40
2019-05-06T04:07:23.619Z,7.13
2019-05-06T04:09:53.720Z,9.40
2019-05-06T04:12:24.818Z,14.73
2019-05-06T04:14:54.483Z,8.87
2019-05-06T04:17:44.112Z,7.07
2019-05-06T04:20:44.676Z,8.33
2019-05-06T04:23:23.448Z,7.57
2019-05-06T04:26:05.509Z,9.07
2019-05-06T04:28:35.758Z,8.10
2019-05-06T04:31:06.012Z,8.70
2019-05-06T04:33:35.320Z,8.07
2019-05-06T04:36:04.629Z,12.47
2019-05-06T04:38:34.077Z,11.53
2019-05-06T04:41:03.329Z,11.43
2019-05-06T04:43:33.603Z,10.50
2019-05-06T04:46:03.385Z,7.20
2019-05-06T04:48:33.214Z,9.37
2019-05-06T04:51:03.375Z,12.33
2019-05-06T04:53:33.869Z,11.27
2019-05-06T04:56:04.190Z,11.90
2019-05-06T04:58:33.871Z,9.70
2019-05-06T05:01:04.055Z,11.90
2019-05-06T05:03:33.760Z,8.23
2019-05-06T05:06:05.812Z,9.60
2019-05-06T05:08:37.462Z,10.37
2019-05-06T05:11:18.181Z,14.57
2019-05-06T05:14:24.739Z,9.27
2019-05-06T05:16:54.948Z,10.77
2019-05-06T05:19:24.137Z,9.57
2019-05-06T05:21:56.524Z,11.23
2019-05-06T05:24:25.738Z,10.83
2019-05-06T05:26:54.926Z,10.97
2019-05-06T05:29:24.042Z,14.27
2019-05-06T05:31:53.288Z,11.23
2019-05-06T05:34:23.830Z,11.00
2019-05-06T05:36:53.276Z,13.63
2019-05-06T05:39:22.402Z,12.83
2019-05-06T05:41:53.500Z,10.57
2019-05-06T05:44:29.281Z,8.93
2019-05-06T05:46:58.471Z,7.90
2019-05-06T05:49:34.984Z,9.17
2019-05-06T05:52:04.202Z,9.87
2019-05-06T05:54:33.385Z,9.83
2019-05-06T05:57:02.795Z,11.50
2019-05-06T05:59:32.903Z,9.67
2019-05-06T06:02:03.785Z,9.07
2019-05-06T06:04:33.408Z,10.63
2019-05-06T06:07:02.862Z,11.07
2019-05-06T06:09:36.471Z,46.30
2019-05-06T06:12:07.804Z,31.20
2019-05-06T06:14:55.715Z,8.17
2019-05-06T06:17:47.904Z,5.97
2019-05-06T06:20:35.835Z,6.80
2019-05-06T06:23:14.095Z,8.20
2019-05-06T06:25:44.125Z,6.57
2019-05-06T06:28:13.308Z,7.47
2019-05-06T06:30:52.325Z,6.53
2019-05-06T06:33:22.343Z,5.80
2019-05-06T06:36:02.861Z,7.73
2019-05-06T06:38:52.582Z,7.40
2019-05-06T06:41:22.794Z,5.93
2019-05-06T06:43:55.380Z,6.70
2019-05-06T06:46:24.503Z,7.77
2019-05-06T06:48:53.880Z,7.13
2019-05-06T06:51:23.522Z,7.70
2019-05-06T06:53:53.015Z,12.20
2019-05-06T06:56:38.145Z,6.90
2019-05-06T06:59:31.769Z,5.57
2019-05-06T07:02:11.978Z,6.77
2019-05-06T07:04:47.368Z,8.57
2019-05-06T07:07:17.509Z,7.70
2019-05-06T07:09:46.678Z,4.67
2019-05-06T07:12:15.834Z,6.60
2019-05-06T07:14:45.337Z,6.40
2019-05-06T07:17:14.533Z,5.13
2019-05-06T07:19:49.536Z,8.27
2019-05-06T07:22:18.732Z,7.27
2019-05-06T07:24:47.843Z,8.17
2019-05-06T07:27:22.848Z,10.00
2019-05-06T07:29:52.394Z,9.97
2019-05-06T07:32:23.229Z,9.23
2019-05-06T07:34:53.098Z,8.47
2019-05-06T07:37:22.480Z,8.70
2019-05-06T07:39:52.900Z,9.00
2019-05-06T07:42:28.118Z,9.13
2019-05-06T07:45:16.185Z,14.73
2019-05-06T07:47:54.638Z,12.80
2019-05-06T07:50:23.928Z,10.03
2019-05-06T07:53:09.449Z,10.03
2019-05-06T07:55:39.494Z,11.77
2019-05-06T07:58:08.830Z,10.03
2019-05-06T08:00:38.057Z,7.40
2019-05-06T08:03:07.340Z,12.37
2019-05-06T08:05:36.590Z,10.67
2019-05-06T08:08:06.016Z,10.87
2019-05-06T08:10:35.350Z,12.70
2019-05-06T08:13:04.735Z,12.47
2019-05-06T08:15:34.021Z,8.53
2019-05-06T08:18:03.693Z,9.97
2019-05-06T08:20:39.030Z,6.50
2019-05-06T08:23:22.040Z,11.50
2019-05-06T08:25:54.351Z,11.63
2019-05-06T08:28:37.449Z,17.17
2019-05-06T08:30:53.943Z,12.80
2019-05-06T08:33:23.163Z,12.17
2019-05-06T08:35:54.561Z,12.17
2019-05-06T08:38:23.186Z,12.23
2019-05-06T08:40:52.647Z,9.80
2019-05-06T08:43:22.089Z,8.90
2019-05-06T08:45:52.851Z,7.73
2019-05-06T08:48:22.247Z,7.50
2019-05-06T08:51:02.725Z,11.77
2019-05-06T08:53:53.320Z,9.73
2019-05-06T08:56:22.887Z,9.23
2019-05-06T08:58:52.784Z,12.43
2019-05-06T09:01:34.462Z,13.43
2019-05-06T09:04:11.853Z,10.27
2019-05-06T09:06:35.236Z,9.73
2019-05-06T09:09:06.364Z,14.03
2019-05-06T09:11:35.475Z,13.17
2019-05-06T09:14:05.124Z,14.90
2019-05-06T09:16:34.266Z,12.17
2019-05-06T09:19:04.593Z,13.57
2019-05-06T09:21:33.957Z,13.17
2019-05-06T09:24:03.189Z,15.13
2019-05-06T09:26:43.100Z,12.70
2019-05-06T09:29:16.469Z,13.87
2019-05-06T09:31:48.463Z,15.63
2019-05-06T09:34:39.836Z,11.37
2019-05-06T09:37:14.051Z,15.07
2019-05-06T09:39:45.246Z,12.57
2019-05-06T09:42:15.096Z,12.17
2019-05-06T09:44:45.458Z,12.83
2019-05-06T09:47:23.837Z,14.80
2019-05-06T09:49:53.302Z,16.37
2019-05-06T09:52:23.167Z,19.70
2019-05-06T09:55:05.470Z,16.10
2019-05-06T09:57:53.700Z,11.77
2019-05-06T10:00:23.713Z,12.60
2019-05-06T10:02:52.986Z,14.13
2019-05-06T10:05:22.104Z,12.90
2019-05-06T10:07:52.371Z,13.97
2019-05-06T10:10:22.372Z,15.73
2019-05-06T10:12:53.012Z,14.57
2019-05-06T10:15:22.948Z,15.40
2019-05-06T10:18:07.149Z,17.03
2019-05-06T10:20:42.633Z,12.90
2019-05-06T10:23:13.192Z,13.50
2019-05-06T10:25:43.853Z,13.83
2019-05-06T10:28:39.348Z,13.17
2019-05-06T10:31:12.721Z,14.63
2019-05-06T10:33:59.553Z,13.67
2019-05-06T10:36:35.893Z,13.70
2019-05-06T10:39:09.463Z,9.97
2019-05-06T10:41:42.233Z,10.73
2019-05-06T10:44:42.865Z,12.20
2019-05-06T10:47:12.137Z,11.77
2019-05-06T10:49:42.063Z,12.70
2019-05-06T10:52:22.362Z,9.73
2019-05-06T10:54:51.502Z,12.03
2019-05-06T10:57:32.851Z,9.47
2019-05-06T11:00:02.085Z,12.80
2019-05-06T11:02:48.215Z,15.83
2019-05-06T11:05:17.618Z,14.40
2019-05-06T11:07:46.764Z,10.03
2019-05-06T11:10:23.901Z,10.03
2019-05-06T11:12:46.890Z,11.83
2019-05-06T11:15:16.032Z,13.10
2019-05-06T11:17:45.224Z,11.73
2019-05-06T11:20:14.347Z,10.00
2019-05-06T11:22:43.775Z,11.47
2019-05-06T11:25:13.637Z,7.80
2019-05-06T11:27:45.145Z,11.17
2019-05-06T11:30:24.829Z,9.03
2019-05-06T11:33:13.066Z,7.97
2019-05-06T11:35:57.722Z,10.40
2019-05-06T11:38:26.894Z,7.80
2019-05-06T11:40:56.030Z,7.37
2019-05-06T11:43:25.273Z,12.17
2019-05-06T11:45:54.380Z,8.00
2019-05-06T11:48:23.627Z,8.13
2019-05-06T11:50:55.900Z,13.73
2019-05-06T11:53:25.164Z,12.07
2019-05-06T11:55:54.986Z,13.57
2019-05-06T11:58:42.900Z,16.27
2019-05-06T12:01:18.366Z,12.67
2019-05-06T12:03:48.657Z,12.37
2019-05-06T12:06:18.966Z,19.23
2019-05-06T12:08:48.277Z,13.57
2019-05-06T12:11:17.441Z,18.17
2019-05-06T12:13:46.642Z,16.87
2019-05-06T12:16:15.767Z,13.27
2019-05-06T12:18:44.883Z,13.53
2019-05-06T12:21:19.183Z,18.47
2019-05-06T12:23:45.166Z,12.60
2019-05-06T12:26:14.501Z,16.07
2019-05-06T12:28:43.826Z,14.40
2019-05-06T12:31:13.121Z,15.70
2019-05-06T12:33:53.336Z,13.00
2019-05-06T12:36:23.440Z,19.60
2019-05-06T12:39:15.720Z,17.60
2019-05-06T12:41:53.379Z,12.80
2019-05-06T12:44:23.086Z,17.23
2019-05-06T12:47:10.357Z,14.90
2019-05-06T12:49:39.615Z,9.30
2019-05-06T12:52:08.812Z,11.67
2019-05-06T12:54:38.450Z,17.77
2019-05-06T12:57:07.607Z,10.63
2019-05-06T12:59:36.798Z,11.10
2019-05-06T13:02:06.033Z,11.47
2019-05-06T13:04:50.262Z,9.53
2019-05-06T13:07:07.813Z,11.17
2019-05-06T13:09:36.915Z,17.70
2019-05-06T13:12:07.540Z,16.83
2019-05-06T13:14:36.730Z,17.77
2019-05-06T13:17:07.231Z,16.90
2019-05-06T13:19:36.447Z,17.67
2019-05-06T13:22:06.096Z,15.90
2019-05-06T13:24:35.231Z,13.93
2019-05-06T13:27:04.397Z,14.37
2019-05-06T13:29:35.608Z,16.57
2019-05-06T13:32:06.688Z,16.67
2019-05-06T13:34:35.896Z,15.57
2019-05-06T13:37:05.648Z,10.20
2019-05-06T13:39:34.826Z,12.33
2019-05-06T13:42:04.218Z,10.00
2019-05-06T13:44:33.410Z,8.10
2019-05-06T13:47:03.149Z,6.63
2019-05-06T13:49:55.503Z,5.37
2019-05-06T13:52:33.704Z,5.97
2019-05-06T13:55:02.847Z,6.80
2019-05-06T13:57:32.216Z,10.07
2019-05-06T14:00:03.153Z,6.43
2019-05-06T14:02:49.855Z,8.53
2019-05-06T14:05:19.017Z,7.87
2019-05-06T14:07:48.108Z,8.57
2019-05-06T14:10:17.751Z,7.70
2019-05-06T14:12:46.884Z,5.27
2019-05-06T14:15:16.389Z,4.30
2019-05-06T14:17:45.504Z,8.57
2019-05-06T14:20:15.014Z,4.27
2019-05-06T14:22:44.276Z,6.53
2019-05-06T14:25:45.145Z,6.77
2019-05-06T14:28:26.383Z,3.67
2019-05-06T14:31:03.108Z,6.17
2019-05-06T14:33:32.472Z,6.80
2019-05-06T14:36:03.283Z,8.77
2019-05-06T14:38:32.992Z,8.57
2019-05-06T14:41:08.456Z,7.03
2019-05-06T14:43:38.157Z,6.10
2019-05-06T14:46:07.543Z,11.23
2019-05-06T14:48:36.843Z,8.47
2019-05-06T14:51:06.076Z,6.00
2019-05-06T14:53:35.274Z,10.90
2019-05-06T14:56:13.010Z,4.93
2019-05-06T14:58:43.893Z,8.17
2019-05-06T15:01:13.741Z,8.93
2019-05-06T15:03:43.121Z,7.37
2019-05-06T15:06:13.025Z,10.33
2019-05-06T15:08:42.862Z,5.43
2019-05-06T15:11:12.299Z,12.93
2019-05-06T15:13:42.701Z,8.47
2019-05-06T15:16:13.192Z,9.03
2019-05-06T15:18:42.755Z,8.57
2019-05-06T15:21:32.256Z,13.73
2019-05-06T15:23:42.875Z,10.10
2019-05-06T15:26:12.343Z,11.27
2019-05-06T15:28:42.498Z,10.63
2019-05-06T15:31:22.885Z,6.17
2019-05-06T15:33:53.679Z,6.33
2019-05-06T15:36:28.674Z,7.07
2019-05-06T15:38:57.905Z,5.70
2019-05-06T15:41:27.040Z,9.63
2019-05-06T15:43:56.188Z,7.83
2019-05-06T15:46:25.465Z,6.40
2019-05-06T15:48:54.609Z,6.07
2019-05-06T15:51:36.663Z,7.67
2019-05-06T15:54:06.857Z,8.33
2019-05-06T15:56:36.065Z,4.40
2019-05-06T15:59:05.540Z,5.43
2019-05-06T16:01:34.692Z,3.90
2019-05-06T16:04:04.256Z,4.23
2019-05-06T16:06:34.815Z,3.87
2019-05-06T16:09:06.618Z,5.10
2019-05-06T16:11:35.961Z,4.67
2019-05-06T16:14:05.170Z,5.63
2019-05-06T16:16:34.438Z,6.00
2019-05-06T16:19:04.608Z,4.50
2019-05-06T16:21:33.912Z,4.57
2019-05-06T16:24:19.911Z,6.67
2019-05-06T16:26:49.273Z,2.83
2019-05-06T16:29:22.995Z,6.57
2019-05-06T16:31:52.253Z,4.20
2019-05-06T16:34:22.800Z,3.83
2019-05-06T16:36:52.155Z,4.47
2019-05-06T16:39:23.020Z,4.70
2019-05-06T16:41:52.479Z,7.87
2019-05-06T16:44:21.691Z,3.50
2019-05-06T16:46:52.101Z,5.07
2019-05-06T16:49:23.182Z,4.10
2019-05-06T16:51:52.671Z,3.97
2019-05-06T16:54:22.053Z,3.77
2019-05-06T16:57:02.350Z,5.27
2019-05-06T16:59:33.447Z,5.27
2019-05-06T17:02:08.584Z,4.80
2019-05-06T17:04:55.782Z,6.40
2019-05-06T17:07:26.681Z,6.77
2019-05-06T17:09:55.989Z,6.23
2019-05-06T17:12:25.410Z,4.70
2019-05-06T17:14:54.760Z,9.73
2019-05-06T17:17:23.924Z,4.20
2019-05-06T17:19:53.120Z,7.90
2019-05-06T17:22:22.929Z,3.90
2019-05-06T17:24:52.879Z,4.40
2019-05-06T17:27:23.549Z,2.67
2019-05-06T17:30:05.454Z,5.13
2019-05-06T17:33:02.101Z,5.80
2019-05-06T17:35:32.781Z,7.23
2019-05-06T17:38:13.176Z,6.47
2019-05-06T17:40:45.252Z,4.00
2019-05-06T17:43:17.104Z,3.57
2019-05-06T17:46:01.678Z,4.67
2019-05-06T17:48:42.603Z,5.63
2019-05-06T17:51:22.590Z,5.20
2019-05-06T17:53:53.403Z,8.23
2019-05-06T17:56:23.485Z,8.67
2019-05-06T17:58:53.343Z,5.13
2019-05-06T18:01:33.006Z,4.60
2019-05-06T18:04:02.740Z,5.47
2019-05-06T18:06:33.008Z,5.80
2019-05-06T18:09:05.713Z,3.20
2019-05-06T18:11:35.364Z,5.40
2019-05-06T18:14:06.611Z,4.63
2019-05-06T18:16:35.810Z,4.20
2019-05-06T18:19:05.119Z,3.93
2019-05-06T18:21:34.947Z,3.00
2019-05-06T18:24:05.521Z,3.13
2019-05-06T18:26:34.785Z,5.47
2019-05-06T18:29:06.982Z,4.23
2019-05-06T18:31:39.568Z,4.30
2019-05-06T18:34:08.689Z,4.17
2019-05-06T18:36:38.257Z,4.57
2019-05-06T18:39:09.139Z,5.53
2019-05-06T18:41:42.105Z,3.87
2019-05-06T18:44:12.022Z,4.70
2019-05-06T18:46:42.025Z,4.47
2019-05-06T18:49:13.038Z,5.13
2019-05-06T18:51:43.767Z,6.77
2019-05-06T18:54:12.982Z,4.67
2019-05-06T18:56:42.956Z,4.10
2019-05-06T18:59:12.504Z,4.97
2019-05-06T19:01:44.980Z,5.30
2019-05-06T19:04:19.629Z,5.10
2019-05-06T19:06:48.964Z,5.43
2019-05-06T19:09:26.726Z,6.00
2019-05-06T19:11:57.170Z,11.80
2019-05-06T19:14:26.531Z,6.55
2019-05-06T19:16:56.164Z,5.43
2019-05-06T19:19:25.400Z,5.13
2019-05-06T19:21:55.114Z,6.23
2019-05-06T19:24:28.075Z,8.70
2019-05-06T19:27:01.983Z,6.63
2019-05-06T19:29:33.117Z,4.20
2019-05-06T19:32:02.954Z,5.43
2019-05-06T19:34:35.416Z,5.97
2019-05-06T19:37:05.210Z,5.23
2019-05-06T19:39:34.796Z,5.00
2019-05-06T19:42:05.782Z,4.50
2019-05-06T19:44:34.982Z,6.07
2019-05-06T19:47:08.472Z,3.33
2019-05-06T19:49:42.426Z,3.47
2019-05-06T19:52:13.170Z,3.97
2019-05-06T19:54:43.836Z,3.37
2019-05-06T19:57:15.894Z,3.03
2019-05-06T19:59:45.824Z,2.87
2019-05-06T20:02:17.488Z,2.73
2019-05-06T20:04:53.263Z,5.20
2019-05-06T20:07:43.436Z,2.97
2019-05-06T20:10:52.853Z,3.83
2019-05-06T20:13:27.299Z,3.20
2019-05-06T20:16:07.042Z,1.73
2019-05-06T20:18:38.305Z,1.43
2019-05-06T20:21:07.475Z,1.90
2019-05-06T20:23:38.962Z,3.77
2019-05-06T20:26:12.415Z,3.23
2019-05-06T20:28:45.443Z,2.17
2019-05-06T20:31:16.590Z,5.83
2019-05-06T20:33:48.411Z,5.97
2019-05-06T20:36:22.561Z,5.20
2019-05-06T20:39:06.853Z,4.30
2019-05-06T20:41:46.167Z,3.97
2019-05-06T20:44:23.764Z,3.43
2019-05-06T20:46:58.929Z,3.43
2019-05-06T20:49:28.820Z,2.77
2019-05-06T20:52:06.269Z,4.27
2019-05-06T20:54:37.204Z,5.57
2019-05-06T20:57:08.430Z,7.03
2019-05-06T20:59:48.126Z,3.37
2019-05-06T21:02:18.349Z,3.93
2019-05-06T21:04:48.711Z,5.93
2019-05-06T21:07:18.580Z,5.97
2019-05-06T21:09:47.823Z,6.20
2019-05-06T21:12:22.455Z,5.70
2019-05-06T21:14:54.011Z,3.93
2019-05-06T21:17:25.788Z,4.37
2019-05-06T21:19:54.824Z,4.23
2019-05-06T21:22:26.560Z,3.77
2019-05-06T21:25:02.473Z,5.70
2019-05-06T21:27:33.685Z,4.10
2019-05-06T21:30:03.100Z,3.87
2019-05-06T21:32:43.917Z,2.80
2019-05-06T21:35:18.494Z,3.87
2019-05-06T21:37:47.928Z,4.83
2019-05-06T21:40:19.980Z,3.47
2019-05-06T21:42:49.384Z,2.50
2019-05-06T21:45:22.158Z,2.80
2019-05-06T21:47:53.006Z,4.40
2019-05-06T21:50:27.574Z,3.00
2019-05-06T21:52:58.125Z,3.67
2019-05-06T21:55:27.945Z,10.33
2019-05-06T21:58:02.123Z,3.63
2019-05-06T22:00:43.539Z,3.27
2019-05-06T22:03:15.325Z,3.40
2019-05-06T22:05:54.286Z,3.73
2019-05-06T22:08:23.817Z,3.77
2019-05-06T22:10:54.380Z,5.53
2019-05-06T22:13:32.560Z,5.03
2019-05-06T22:16:08.892Z,3.67
2019-05-06T22:18:43.301Z,4.27
2019-05-06T22:21:33.612Z,4.30
2019-05-06T22:24:08.215Z,3.47
2019-05-06T22:26:37.475Z,6.10
2019-05-06T22:29:09.204Z,5.17
2019-05-06T22:31:42.318Z,3.20
2019-05-06T22:34:15.763Z,4.77
2019-05-06T22:36:48.023Z,5.10
2019-05-06T22:39:18.726Z,4.93
2019-05-06T22:41:47.955Z,3.37
2019-05-06T22:44:17.279Z,4.43
2019-05-06T22:46:47.007Z,4.07
2019-05-06T22:49:16.101Z,4.33
2019-05-06T22:51:47.606Z,4.93
2019-05-06T22:54:18.418Z,3.20
2019-05-06T22:56:52.388Z,3.57
2019-05-06T22:59:24.464Z,4.83
2019-05-06T23:02:03.171Z,5.93
2019-05-06T23:04:34.405Z,3.93
2019-05-06T23:07:04.960Z,9.43
2019-05-06T23:09:34.198Z,3.73
2019-05-06T23:12:12.413Z,4.70
2019-05-06T23:14:44.910Z,3.50
2019-05-06T23:17:17.560Z,5.03
2019-05-06T23:19:46.965Z,4.60
2019-05-06T23:22:25.092Z,7.67
2019-05-06T23:24:55.883Z,6.83
2019-05-06T23:27:25.489Z,5.70
2019-05-06T23:29:56.068Z,4.57
2019-05-06T23:32:27.870Z,4.37
2019-05-06T23:35:03.272Z,5.40
2019-05-06T23:37:32.729Z,5.07
2019-05-06T23:40:43.981Z,4.40
2019-05-06T23:43:51.027Z,4.10
2019-05-06T23:46:56.124Z,4.13
2019-05-06T23:50:03.753Z,5.20
2019-05-06T23:53:09.789Z,5.27
2019-05-06T23:56:22.512Z,6.20
2019-05-06T23:58:52.465Z,5.63
